Time;durP1;ratioP1;P1;durP2;ratioP2;P2;SDS_P1;SDS_P2;PMS_P1;PMS_P2;Temp;Humidity;BMP_temperature;BMP_pressure;BME280_temperature;BME280_humidity;BME280_pressure;Samples;Min_cycle;Max_cycle;Signal;HPM_P1;HPM_P2
2022/09/14 00:01:09;;;;;;;;;;;;;;;-155.54;100.00;57697.75;5022990;28;19931;-66
2022/09/14 00:03:34;;;;;;;;;;;;;;;-155.54;100.00;57697.75;5022610;28;19927;-66
2022/09/14 00:06:06;;;;;;;;;;;;;;;-155.54;100.00;57697.75;5022300;28;20370;-66
2022/09/14 00:08:31;;;;;;;;;;;;;;;-155.54;100.00;57697.75;5022813;28;20006;-66
2022/09/14 00:10:57;;;;;;;;;;;;;;;-155.54;100.00;57697.75;5004894;28;20157;-66
2022/09/14 00:13:22;;;;;;;;;;;;;;;-155.54;100.00;57697.75;5022614;28;20006;-66
2022/09/14 00:15:48;;;;;;;;;;;;;;;-155.54;100.00;57697.75;5022657;28;19960;-66
2022/09/14 00:18:13;;;;;;;;;;;;;;;-155.54;100.00;57697.75;5023104;28;19964;-66
2022/09/14 00:20:38;;;;;;;;;;;;;;;-155.54;100.00;57697.75;5021735;28;20454;-66
2022/09/14 00:23:04;;;;;;;;;;;;;;;-155.54;100.00;57697.75;5023030;28;20041;-66
2022/09/14 00:25:29;;;;;;;;;;;;;;;-155.54;100.00;57697.75;5022441;28;20459;-66
2022/09/14 00:27:54;;;;;;;;;;;;;;;-155.54;100.00;57697.75;5022656;28;19967;-66
2022/09/14 00:30:20;;;;;;;;;;;;;;;-155.54;100.00;57697.75;5022769;28;20155;-66
2022/09/14 00:32:45;;;;;;;;;;;;;;;-155.54;100.00;57697.75;5022218;28;19925;-67
2022/09/14 00:35:10;;;;;;;;;;;;;;;-155.54;100.00;57697.75;5022290;28;19921;-66
2022/09/14 00:37:36;;;;;;;;;;;;;;;-155.54;100.00;57697.75;5022055;28;19928;-66
2022/09/14 00:40:02;;;;;;;;;;;;;;;-155.54;100.00;57697.75;5022134;28;20228;-66
2022/09/14 00:42:27;;;;;;;;;;;;;;;-155.54;100.00;57697.75;5022289;28;19929;-66
2022/09/14 00:44:56;;;;;;;;;;;;;;;-155.54;100.00;57697.75;5022141;28;20389;-66
2022/09/14 00:47:21;;;;;;;;;;;;;;;-155.54;100.00;57697.75;5002584;28;19921;-66
2022/09/14 00:49:46;;;;;;;;;;;;;;;-155.54;100.00;57697.75;5019229;28;20428;-66
2022/09/14 00:52:16;;;;;;;;;;;;;;;-155.54;100.00;57697.75;5020837;28;19933;-66
2022/09/14 00:55:05;;;;;;;;;;;;;;;-155.54;100.00;57697.75;5000430;28;20032;-66
2022/09/14 00:57:33;;;;;;;;;;;;;;;-155.54;100.00;57697.75;5010290;28;19991;-66
2022/09/14 00:59:58;;;;;;;;;;;;;;;-155.54;100.00;57697.75;5000094;28;19927;-66
2022/09/14 01:02:24;;;;;;;;;;;;;;;-155.54;100.00;57697.75;5021425;28;19925;-66
2022/09/14 01:04:50;;;;;;;;;;;;;;;-155.54;100.00;57697.75;5021425;28;19932;-66
2022/09/14 01:07:34;;;;;;;;;;;;;;;-155.54;100.00;57697.75;5021751;28;20472;-66
2022/09/14 01:09:59;;;;;;;;;;;;;;;-155.54;100.00;57697.75;5020146;28;19925;-66
2022/09/14 01:12:28;;;;;;;;;;;;;;;-155.54;100.00;57697.75;5020062;28;19936;-67
2022/09/14 01:15:16;;;;;;;;;;;;;;;-155.54;100.00;57697.75;5003895;28;20068;-67
2022/09/14 01:17:44;;;;;;;;;;;;;;;-155.54;100.00;57697.75;5021062;28;19925;-67
2022/09/14 01:20:10;;;;;;;;;;;;;;;-155.54;100.00;57697.75;5021050;28;20158;-66
2022/09/14 01:22:51;;;;;;;;;;;;;;;-155.54;100.00;57697.75;5021484;28;19936;-66
2022/09/14 01:25:31;;;;;;;;;;;;;;;-155.54;100.00;57697.75;5020714;28;19921;-66
2022/09/14 01:27:56;;;;;;;;;;;;;;;-155.54;100.00;57697.75;5018416;28;19925;-67
2022/09/14 01:30:22;;;;;;;;;;;;;;;-155.54;100.00;57697.75;5003393;28;19967;-67
2022/09/14 01:33:07;;;;;;;;;;;;;;;-155.54;100.00;57697.75;5020613;28;20335;-66
2022/09/14 01:35:34;;;;;;;;;;;;;;;-155.54;100.00;57697.75;5020018;28;19952;-66
2022/09/14 01:38:10;;;;;;;;;;;;;;;-155.54;100.00;57697.75;5002773;28;19964;-66
2022/09/14 01:40:36;;;;;;;;;;;;;;;-155.54;100.00;57697.75;5002881;28;19921;-66
2022/09/14 01:43:09;;;;;;;;;;;;;;;-155.54;100.00;57697.75;5021559;28;19971;-66
2022/09/14 01:45:37;;;;;;;;;;;;;;;-155.54;100.00;57697.75;5017045;28;19925;-66
2022/09/14 01:48:03;;;;;;;;;;;;;;;-155.54;100.00;57697.75;5002557;28;20087;-66
2022/09/14 01:51:01;;;;;;;;;;;;;;;-155.54;100.00;57697.75;5001090;28;19925;-66
2022/09/14 01:53:26;;;;;;;;;;;;;;;-155.54;100.00;57697.75;4975165;28;19929;-66
2022/09/14 01:55:59;;;;;;;;;;;;;;;-155.54;100.00;57697.75;5020394;28;19943;-66
2022/09/14 01:58:27;;;;;;;;;;;;;;;-155.54;100.00;57697.75;5002036;28;19957;-66
2022/09/14 02:00:52;;;;;;;;;;;;;;;-155.54;100.00;57697.75;5020341;28;19937;-67
2022/09/14 02:03:22;;;;;;;;;;;;;;;-155.54;100.00;57697.75;5002716;28;19917;-66
2022/09/14 02:05:51;;;;;;;;;;;;;;;-155.54;100.00;57697.75;5002225;28;20118;-66
2022/09/14 02:08:16;;;;;;;;;;;;;;;-155.54;100.00;57697.75;5020209;28;19925;-66
2022/09/14 02:10:42;;;;;;;;;;;;;;;-155.54;100.00;57697.75;5020348;28;19979;-66
2022/09/14 02:13:08;;;;;;;;;;;;;;;-155.54;100.00;57697.75;5020397;28;20003;-66
2022/09/14 02:15:33;;;;;;;;;;;;;;;-155.54;100.00;57697.75;5020789;28;19917;-66
2022/09/14 02:17:59;;;;;;;;;;;;;;;-155.54;100.00;57697.75;5002205;28;19932;-66
2022/09/14 02:20:44;;;;;;;;;;;;;;;-155.54;100.00;57697.75;5001682;28;20149;-66
2022/09/14 02:23:09;;;;;;;;;;;;;;;-155.54;100.00;57697.75;5019349;28;19961;-66
2022/09/14 02:25:35;;;;;;;;;;;;;;;-155.54;100.00;57697.75;5001657;28;19956;-66
2022/09/14 02:28:00;;;;;;;;;;;;;;;-155.54;100.00;57697.75;5002373;28;19987;-66
2022/09/14 02:30:26;;;;;;;;;;;;;;;-155.54;100.00;57697.75;5020289;28;19928;-66
2022/09/14 02:33:01;;;;;;;;;;;;;;;-155.54;100.00;57697.75;5001635;28;19936;-67
2022/09/14 02:35:26;;;;;;;;;;;;;;;-155.54;100.00;57697.75;5002413;28;20000;-66
2022/09/14 02:37:56;;;;;;;;;;;;;;;-155.54;100.00;57697.75;5020282;28;20468;-66
2022/09/14 02:40:24;;;;;;;;;;;;;;;-155.54;100.00;57697.75;5019809;28;19921;-66
2022/09/14 02:43:08;;;;;;;;;;;;;;;-155.54;100.00;57697.75;5019921;28;19921;-66
2022/09/14 02:45:49;;;;;;;;;;;;;;;-155.54;100.00;57697.75;5018437;28;20019;-66
2022/09/14 02:48:34;;;;;;;;;;;;;;;-155.54;100.00;57697.75;4999497;28;20043;-66
2022/09/14 02:51:05;;;;;;;;;;;;;;;-155.54;100.00;57697.75;5018638;28;20294;-66
2022/09/14 02:53:49;;;;;;;;;;;;;;;-155.54;100.00;57697.75;5019288;28;19929;-66
2022/09/14 02:56:14;;;;;;;;;;;;;;;-155.54;100.00;57697.75;5017164;28;20355;-66
2022/09/14 02:58:40;;;;;;;;;;;;;;;-155.54;100.00;57697.75;5002006;28;20293;-66
2022/09/14 03:01:06;;;;;;;;;;;;;;;-155.54;100.00;57697.75;5018844;28;19987;-67
2022/09/14 03:03:31;;;;;;;;;;;;;;;-155.54;100.00;57697.75;5019627;28;20443;-67
2022/09/14 03:05:57;;;;;;;;;;;;;;;-155.54;100.00;57697.75;5018960;28;19929;-67
2022/09/14 03:08:22;;;;;;;;;;;;;;;-155.54;100.00;57697.75;5019382;28;19987;-66
2022/09/14 03:10:48;;;;;;;;;;;;;;;-155.54;100.00;57697.75;5018665;28;19931;-66
2022/09/14 03:13:13;;;;;;;;;;;;;;;-155.54;100.00;57697.75;5019223;28;20696;-66
2022/09/14 03:15:38;;;;;;;;;;;;;;;-155.54;100.00;57697.75;5000610;28;19961;-66
2022/09/14 03:18:04;;;;;;;;;;;;;;;-155.54;100.00;57697.75;5019844;28;20137;-66
2022/09/14 03:20:30;;;;;;;;;;;;;;;-155.54;100.00;57697.75;5018424;28;19925;-66
2022/09/14 03:22:57;;;;;;;;;;;;;;;-155.54;100.00;57697.75;5017422;28;20018;-66
2022/09/14 03:25:22;;;;;;;;;;;;;;;-155.54;100.00;57697.75;5018936;28;20203;-66
2022/09/14 03:27:50;;;;;;;;;;;;;;;-155.54;100.00;57697.75;5019091;28;19971;-67
2022/09/14 03:30:16;;;;;;;;;;;;;;;-155.54;100.00;57697.75;5020007;28;20337;-67
2022/09/14 03:32:41;;;;;;;;;;;;;;;-155.54;100.00;57697.75;5018720;28;19952;-67
2022/09/14 03:35:07;;;;;;;;;;;;;;;-155.54;100.00;57697.75;5019379;28;20253;-66
2022/09/14 03:37:35;;;;;;;;;;;;;;;-155.54;100.00;57697.75;5019258;28;20517;-66
2022/09/14 03:40:00;;;;;;;;;;;;;;;-155.54;100.00;57697.75;5019000;28;20547;-66
2022/09/14 03:42:25;;;;;;;;;;;;;;;-155.54;100.00;57697.75;5019086;28;20030;-66
2022/09/14 03:44:51;;;;;;;;;;;;;;;-155.54;100.00;57697.75;5019091;28;19921;-66
2022/09/14 03:47:16;;;;;;;;;;;;;;;-155.54;100.00;57697.75;5018984;28;20315;-66
2022/09/14 03:49:41;;;;;;;;;;;;;;;-155.54;100.00;57697.75;5016616;28;20425;-66
2022/09/14 03:52:06;;;;;;;;;;;;;;;-155.54;100.00;57697.75;5016696;28;19928;-66
2022/09/14 03:54:32;;;;;;;;;;;;;;;-155.54;100.00;57697.75;5019236;28;19917;-66
2022/09/14 03:56:57;;;;;;;;;;;;;;;-155.54;100.00;57697.75;5018967;28;20598;-66
2022/09/14 03:59:22;;;;;;;;;;;;;;;-155.54;100.00;57697.75;5019013;28;19986;-66
2022/09/14 04:01:47;;;;;;;;;;;;;;;-155.54;100.00;57697.75;5017178;28;19921;-66
2022/09/14 04:04:13;;;;;;;;;;;;;;;-155.54;100.00;57697.75;5018425;28;19923;-66
2022/09/14 04:06:38;;;;;;;;;;;;;;;-155.54;100.00;57697.75;5019358;28;19968;-66
2022/09/14 04:09:03;;;;;;;;;;;;;;;-155.54;100.00;57697.75;5019197;28;19953;-66
2022/09/14 04:11:30;;;;;;;;;;;;;;;-155.54;100.00;57697.75;5019540;28;20587;-66
2022/09/14 04:13:58;;;;;;;;;;;;;;;-155.54;100.00;57697.75;5018780;28;19925;-66
2022/09/14 04:16:24;;;;;;;;;;;;;;;-155.54;100.00;57697.75;5019328;28;20104;-66
2022/09/14 04:18:49;;;;;;;;;;;;;;;-155.54;100.00;57697.75;5016065;28;20302;-66
2022/09/14 04:21:15;;;;;;;;;;;;;;;-155.54;100.00;57697.75;5020189;28;19917;-66
2022/09/14 04:23:40;;;;;;;;;;;;;;;-155.54;100.00;57697.75;5022582;28;20331;-66
2022/09/14 04:26:09;;;;;;;;;;;;;;;-155.54;100.00;57697.75;5022898;28;20004;-66
2022/09/14 04:28:34;;;;;;;;;;;;;;;-155.54;100.00;57697.75;5022195;28;20205;-67
2022/09/14 04:31:00;;;;;;;;;;;;;;;-155.54;100.00;57697.75;5022720;28;19964;-66
2022/09/14 04:33:25;;;;;;;;;;;;;;;-155.54;100.00;57697.75;5021591;28;19921;-66
2022/09/14 04:36:01;;;;;;;;;;;;;;;-155.54;100.00;57697.75;5022425;28;20373;-66
2022/09/14 04:38:27;;;;;;;;;;;;;;;-155.54;100.00;57697.75;5022430;28;19921;-66
2022/09/14 04:40:52;;;;;;;;;;;;;;;-155.54;100.00;57697.75;5022422;28;19918;-66
2022/09/14 04:43:17;;;;;;;;;;;;;;;-155.54;100.00;57697.75;5001535;28;19924;-66
2022/09/14 04:45:43;;;;;;;;;;;;;;;-155.54;100.00;57697.75;5022216;28;20016;-66
2022/09/14 04:48:08;;;;;;;;;;;;;;;-155.54;100.00;57697.75;5021773;28;20117;-66
2022/09/14 04:50:33;;;;;;;;;;;;;;;-155.54;100.00;57697.75;5021339;28;19972;-66
2022/09/14 04:52:58;;;;;;;;;;;;;;;-155.54;100.00;57697.75;5021680;28;19972;-66
2022/09/14 04:55:24;;;;;;;;;;;;;;;-155.54;100.00;57697.75;5022423;28;20179;-66
2022/09/14 04:57:49;;;;;;;;;;;;;;;-155.54;100.00;57697.75;5022204;28;20405;-66
2022/09/14 05:00:15;;;;;;;;;;;;;;;-155.54;100.00;57697.75;5021622;28;19935;-66
2022/09/14 05:02:40;;;;;;;;;;;;;;;-155.54;100.00;57697.75;5021672;28;20352;-66
2022/09/14 05:05:06;;;;;;;;;;;;;;;-155.54;100.00;57697.75;5021376;28;19947;-66
2022/09/14 05:07:31;;;;;;;;;;;;;;;-155.54;100.00;57697.75;5021862;28;19987;-66
2022/09/14 05:09:56;;;;;;;;;;;;;;;-155.54;100.00;57697.75;5021219;28;20177;-66
2022/09/14 05:12:22;;;;;;;;;;;;;;;-155.54;100.00;57697.75;5021429;28;20444;-66
2022/09/14 05:14:47;;;;;;;;;;;;;;;-155.54;100.00;57697.75;5021892;28;19952;-66
2022/09/14 05:17:13;;;;;;;;;;;;;;;-155.54;100.00;57697.75;5021364;28;19953;-66
2022/09/14 05:19:38;;;;;;;;;;;;;;;-155.54;100.00;57697.75;5018669;28;19975;-66
2022/09/14 05:22:03;;;;;;;;;;;;;;;-155.54;100.00;57697.75;5021501;28;20528;-66
2022/09/14 05:24:29;;;;;;;;;;;;;;;-155.54;100.00;57697.75;5020941;28;20211;-66
2022/09/14 05:26:54;;;;;;;;;;;;;;;-155.54;100.00;57697.75;5021611;28;19928;-66
2022/09/14 05:29:19;;;;;;;;;;;;;;;-155.54;100.00;57697.75;5021267;28;20027;-66
2022/09/14 05:31:44;;;;;;;;;;;;;;;-155.54;100.00;57697.75;5021266;28;19961;-66
2022/09/14 05:34:10;;;;;;;;;;;;;;;-155.54;100.00;57697.75;5020248;28;19968;-66
2022/09/14 05:36:36;;;;;;;;;;;;;;;-155.54;100.00;57697.75;5020451;28;19951;-66
2022/09/14 05:39:01;;;;;;;;;;;;;;;-155.54;100.00;57697.75;5021760;28;20147;-66
2022/09/14 05:41:26;;;;;;;;;;;;;;;-155.54;100.00;57697.75;5020850;28;20118;-66
2022/09/14 05:43:52;;;;;;;;;;;;;;;-155.54;100.00;57697.75;5020935;28;19917;-66
2022/09/14 05:46:19;;;;;;;;;;;;;;;-155.54;100.00;57697.75;5021301;28;19949;-66
2022/09/14 05:48:44;;;;;;;;;;;;;;;-155.54;100.00;57697.75;5020280;28;19933;-66
2022/09/14 05:51:14;;;;;;;;;;;;;;;-155.54;100.00;57697.75;5020614;28;20434;-66
2022/09/14 05:53:39;;;;;;;;;;;;;;;-155.54;100.00;57697.75;5020770;28;20435;-66
2022/09/14 05:56:06;;;;;;;;;;;;;;;-155.54;100.00;57697.75;5020770;28;19928;-66
2022/09/14 05:58:31;;;;;;;;;;;;;;;-155.54;100.00;57697.75;5020635;28;19936;-66
2022/09/14 06:00:56;;;;;;;;;;;;;;;-155.54;100.00;57697.75;5020792;28;19923;-67
2022/09/14 06:03:21;;;;;;;;;;;;;;;-155.54;100.00;57697.75;5020955;28;20015;-66
2022/09/14 06:05:47;;;;;;;;;;;;;;;-155.54;100.00;57697.75;5020978;28;20388;-66
2022/09/14 06:08:12;;;;;;;;;;;;;;;-155.54;100.00;57697.75;5020277;28;19979;-66
2022/09/14 06:10:37;;;;;;;;;;;;;;;-155.54;100.00;57697.75;5020590;28;20603;-66
2022/09/14 06:13:02;;;;;;;;;;;;;;;-155.54;100.00;57697.75;5020303;28;19994;-65
2022/09/14 06:15:28;;;;;;;;;;;;;;;-155.54;100.00;57697.75;5018830;28;19921;-66
2022/09/14 06:17:53;;;;;;;;;;;;;;;-155.54;100.00;57697.75;5017239;28;19960;-66
2022/09/14 06:20:18;;;;;;;;;;;;;;;-155.54;100.00;57697.75;5018228;28;20265;-66
2022/09/14 06:22:43;;;;;;;;;;;;;;;-155.54;100.00;57697.75;5013927;28;20004;-66
2022/09/14 06:25:10;;;;;;;;;;;;;;;-155.54;100.00;57697.75;5014806;28;19932;-66
2022/09/14 06:27:35;;;;;;;;;;;;;;;-155.54;100.00;57697.75;5016209;28;19921;-66
2022/09/14 06:30:01;;;;;;;;;;;;;;;-155.54;100.00;57697.75;5016494;28;20050;-66
2022/09/14 06:32:28;;;;;;;;;;;;;;;-155.54;100.00;57697.75;5015104;28;19961;-66
2022/09/14 06:34:53;;;;;;;;;;;;;;;-155.54;100.00;57697.75;5014560;28;20487;-66
2022/09/14 06:37:18;;;;;;;;;;;;;;;-155.54;100.00;57697.75;5019841;28;19925;-66
2022/09/14 06:39:44;;;;;;;;;;;;;;;-155.54;100.00;57697.75;5017226;28;20219;-66
2022/09/14 06:42:09;;;;;;;;;;;;;;;-155.54;100.00;57697.75;5018916;28;20046;-66
2022/09/14 06:44:35;;;;;;;;;;;;;;;-155.54;100.00;57697.75;5012258;28;20649;-66
2022/09/14 06:47:00;;;;;;;;;;;;;;;-155.54;100.00;57697.75;5019639;28;19972;-66
2022/09/14 06:49:25;;;;;;;;;;;;;;;-155.54;100.00;57697.75;5017663;28;20074;-65
2022/09/14 06:51:53;;;;;;;;;;;;;;;-155.54;100.00;57697.75;5015913;28;19968;-66
2022/09/14 06:54:18;;;;;;;;;;;;;;;-155.54;100.00;57697.75;5019268;28;20031;-66
2022/09/14 06:56:44;;;;;;;;;;;;;;;-155.54;100.00;57697.75;5016795;28;20456;-66
2022/09/14 06:59:10;;;;;;;;;;;;;;;-155.54;100.00;57697.75;5019181;28;20000;-65
2022/09/14 07:01:35;;;;;;;;;;;;;;;-155.54;100.00;57697.75;5012966;28;19983;-66
2022/09/14 07:04:00;;;;;;;;;;;;;;;-155.54;100.00;57697.75;5018811;28;19968;-66
2022/09/14 07:06:27;;;;;;;;;;;;;;;-155.54;100.00;57697.75;5018933;28;20348;-66
2022/09/14 07:08:52;;;;;;;;;;;;;;;-155.54;100.00;57697.75;5018011;28;19921;-67
2022/09/14 07:11:18;;;;;;;;;;;;;;;-155.54;100.00;57697.75;5018307;28;19975;-67
2022/09/14 07:13:43;;;;;;;;;;;;;;;-155.54;100.00;57697.75;5018288;28;19961;-67
2022/09/14 07:16:09;;;;;;;;;;;;;;;-155.54;100.00;57697.75;4993992;28;20313;-67
2022/09/14 07:18:35;;;;;;;;;;;;;;;-155.54;100.00;57697.75;5018659;28;19925;-67
2022/09/14 07:21:03;;;;;;;;;;;;;;;-155.54;100.00;57697.75;5016418;28;20387;-67
2022/09/14 07:23:29;;;;;;;;;;;;;;;-155.54;100.00;57697.75;5018444;28;19953;-67
2022/09/14 07:26:04;;;;;;;;;;;;;;;-155.54;100.00;57697.75;5017842;28;19964;-67
2022/09/14 07:28:29;;;;;;;;;;;;;;;-155.54;100.00;57697.75;5018234;28;19993;-67
2022/09/14 07:30:54;;;;;;;;;;;;;;;-155.54;100.00;57697.75;5018029;28;20003;-67
2022/09/14 07:33:20;;;;;;;;;;;;;;;-155.54;100.00;57697.75;5019231;28;20023;-67
2022/09/14 07:35:45;;;;;;;;;;;;;;;-155.54;100.00;57697.75;5016554;28;20599;-67
2022/09/14 07:38:10;;;;;;;;;;;;;;;-155.54;100.00;57697.75;5018861;28;19974;-67
2022/09/14 07:40:35;;;;;;;;;;;;;;;-155.54;100.00;57697.75;5015384;28;20024;-67
2022/09/14 07:43:01;;;;;;;;;;;;;;;-155.54;100.00;57697.75;5019322;28;20024;-67
2022/09/14 07:45:26;;;;;;;;;;;;;;;-155.54;100.00;57697.75;5017045;28;20107;-67
2022/09/14 07:47:51;;;;;;;;;;;;;;;-155.54;100.00;57697.75;5018343;28;20035;-67
2022/09/14 07:50:17;;;;;;;;;;;;;;;-155.54;100.00;57697.75;5018645;28;20389;-66
2022/09/14 07:52:42;;;;;;;;;;;;;;;-155.54;100.00;57697.75;5018388;28;20005;-67
2022/09/14 07:55:07;;;;;;;;;;;;;;;-155.54;100.00;57697.75;5018878;28;19981;-67
2022/09/14 07:57:33;;;;;;;;;;;;;;;-155.54;100.00;57697.75;5020962;28;20000;-67
2022/09/14 07:59:58;;;;;;;;;;;;;;;-155.54;100.00;57697.75;5022259;28;20301;-66
2022/09/14 08:02:24;;;;;;;;;;;;;;;-155.54;100.00;57697.75;5021017;28;20328;-67
2022/09/14 08:04:51;;;;;;;;;;;;;;;-155.54;100.00;57697.75;5020148;28;20135;-67
2022/09/14 08:07:17;;;;;;;;;;;;;;;-155.54;100.00;57697.75;5019064;28;20016;-67
2022/09/14 08:09:42;;;;;;;;;;;;;;;-155.54;100.00;57697.75;5022290;28;19993;-66
2022/09/14 08:12:07;;;;;;;;;;;;;;;-155.54;100.00;57697.75;5021542;28;20051;-67
2022/09/14 08:14:32;;;;;;;;;;;;;;;-155.54;100.00;57697.75;5021966;28;20070;-67
2022/09/14 08:16:59;;;;;;;;;;;;;;;-155.54;100.00;57697.75;5021508;28;20426;-67
2022/09/14 08:19:25;;;;;;;;;;;;;;;-155.54;100.00;57697.75;5019807;28;19984;-66
2022/09/14 08:21:50;;;;;;;;;;;;;;;-155.54;100.00;57697.75;5021911;28;20024;-68
2022/09/14 08:24:16;;;;;;;;;;;;;;;-155.54;100.00;57697.75;5020736;28;20118;-67
2022/09/14 08:26:41;;;;;;;;;;;;;;;-155.54;100.00;57697.75;5022158;28;19974;-66
2022/09/14 08:29:07;;;;;;;;;;;;;;;-155.54;100.00;57697.75;5021194;28;20446;-67
2022/09/14 08:31:34;;;;;;;;;;;;;;;-155.54;100.00;57697.75;5022872;28;20068;-67
2022/09/14 08:34:01;;;;;;;;;;;;;;;-155.54;100.00;57697.75;5017929;28;20491;-68
2022/09/14 08:36:27;;;;;;;;;;;;;;;-155.54;100.00;57697.75;5021309;28;20000;-67
2022/09/14 08:38:53;;;;;;;;;;;;;;;-155.54;100.00;57697.75;5021550;28;20016;-68
2022/09/14 08:41:24;;;;;;;;;;;;;;;-155.54;100.00;57697.75;5020867;28;20811;-67
2022/09/14 08:43:49;;;;;;;;;;;;;;;-155.54;100.00;57697.75;5021277;28;20035;-67
2022/09/14 08:46:24;;;;;;;;;;;;;;;-155.54;100.00;57697.75;5003502;28;19981;-67
2022/09/14 08:48:49;;;;;;;;;;;;;;;-155.54;100.00;57697.75;5001626;28;20005;-67
2022/09/14 08:51:15;;;;;;;;;;;;;;;-155.54;100.00;57697.75;5004117;28;19978;-67
2022/09/14 08:53:40;;;;;;;;;;;;;;;-155.54;100.00;57697.75;5003291;28;20001;-67
2022/09/14 08:56:08;;;;;;;;;;;;;;;-155.54;100.00;57697.75;5020220;28;20380;-67
2022/09/14 08:58:49;;;;;;;;;;;;;;;-155.54;100.00;57697.75;5001576;28;19965;-67
2022/09/14 09:01:24;;;;;;;;;;;;;;;-155.54;100.00;57697.75;5020408;28;19999;-67
2022/09/14 09:04:07;;;;;;;;;;;;;;;-155.54;100.00;57697.75;5020940;28;20033;-67
2022/09/14 09:06:59;;;;;;;;;;;;;;;-155.54;100.00;57697.75;5017718;28;20513;-67
2022/09/14 09:09:33;;;;;;;;;;;;;;;-155.54;100.00;57697.75;5016919;28;19996;-67
2022/09/14 09:11:58;;;;;;;;;;;;;;;-155.54;100.00;57697.75;5020364;28;19965;-67
2022/09/14 09:14:30;;;;;;;;;;;;;;;-155.54;100.00;57697.75;4986842;28;19990;-67
2022/09/14 09:16:55;;;;;;;;;;;;;;;-155.54;100.00;57697.75;5001193;28;19990;-67
2022/09/14 09:19:27;;;;;;;;;;;;;;;-155.54;100.00;57697.75;5019012;28;20036;-67
2022/09/14 09:21:52;;;;;;;;;;;;;;;-155.54;100.00;57697.75;5003095;28;20495;-67
2022/09/14 09:24:37;;;;;;;;;;;;;;;-155.54;100.00;57697.75;5020221;28;20080;-67
2022/09/14 09:27:07;;;;;;;;;;;;;;;-155.54;100.00;57697.75;5000525;28;20056;-67
2022/09/14 09:29:33;;;;;;;;;;;;;;;-155.54;100.00;57697.75;5019145;28;20298;-67
2022/09/14 09:31:58;;;;;;;;;;;;;;;-155.54;100.00;57697.75;5020899;28;20535;-67
2022/09/14 09:34:26;;;;;;;;;;;;;;;-155.54;100.00;57697.75;5020403;28;20029;-67
2022/09/14 09:36:52;;;;;;;;;;;;;;;-155.54;100.00;57697.75;5019278;28;20577;-67
2022/09/14 09:39:17;;;;;;;;;;;;;;;-155.54;100.00;57697.75;5020302;28;20020;-67
2022/09/14 09:41:55;;;;;;;;;;;;;;;-155.54;100.00;57697.75;4999284;28;20091;-67
2022/09/14 09:44:20;;;;;;;;;;;;;;;-155.54;100.00;57697.75;5016191;28;20270;-67
2022/09/14 09:46:49;;;;;;;;;;;;;;;-155.54;100.00;57697.75;5001984;28;19996;-68
2022/09/14 09:49:34;;;;;;;;;;;;;;;-155.54;100.00;57697.75;5017879;28;20458;-67
2022/09/14 09:52:08;;;;;;;;;;;;;;;-155.54;100.00;57697.75;5019146;28;20072;-67
2022/09/14 09:54:34;;;;;;;;;;;;;;;-155.54;100.00;57697.75;5018753;28;19988;-67
2022/09/14 09:57:05;;;;;;;;;;;;;;;-155.54;100.00;57697.75;5001194;28;19999;-67
2022/09/14 09:59:34;;;;;;;;;;;;;;;-155.54;100.00;57697.75;5020148;28;20266;-67
2022/09/14 10:02:17;;;;;;;;;;;;;;;-155.54;100.00;57697.75;5019655;28;20436;-67
2022/09/14 10:05:02;;;;;;;;;;;;;;;-155.54;100.00;57697.75;5018879;28;20036;-67
2022/09/14 10:07:27;;;;;;;;;;;;;;;-155.54;100.00;57697.75;5020627;28;20060;-67
2022/09/14 10:09:57;;;;;;;;;;;;;;;-155.54;100.00;57697.75;5019679;28;20138;-67
2022/09/14 10:12:22;;;;;;;;;;;;;;;-155.54;100.00;57697.75;5017794;28;20236;-66
2022/09/14 10:14:47;;;;;;;;;;;;;;;-155.54;100.00;57697.75;5000991;28;20171;-67
2022/09/14 10:17:16;;;;;;;;;;;;;;;-155.54;100.00;57697.75;5001413;28;20083;-67
2022/09/14 10:19:51;;;;;;;;;;;;;;;-155.54;100.00;57697.75;5016537;28;20237;-67
2022/09/14 10:22:26;;;;;;;;;;;;;;;-155.54;100.00;57697.75;5017636;28;19976;-67
2022/09/14 10:24:56;;;;;;;;;;;;;;;-155.54;100.00;57697.75;5001047;28;19989;-67
2022/09/14 10:27:29;;;;;;;;;;;;;;;-155.54;100.00;57697.75;5019824;28;19978;-67
2022/09/14 10:29:54;;;;;;;;;;;;;;;-155.54;100.00;57697.75;5000919;28;20019;-67
2022/09/14 10:32:22;;;;;;;;;;;;;;;-155.54;100.00;57697.75;5018503;28;19996;-67
2022/09/14 10:34:47;;;;;;;;;;;;;;;-155.54;100.00;57697.75;5000417;28;20454;-67
2022/09/14 10:37:16;;;;;;;;;;;;;;;-155.54;100.00;57697.75;5018478;28;20021;-67
2022/09/14 10:39:44;;;;;;;;;;;;;;;-155.54;100.00;57697.75;4999368;28;20028;-67
2022/09/14 10:42:09;;;;;;;;;;;;;;;-155.54;100.00;57697.75;5015906;28;20104;-67
2022/09/14 10:44:34;;;;;;;;;;;;;;;-155.54;100.00;57697.75;5016773;28;20080;-67
2022/09/14 10:47:00;;;;;;;;;;;;;;;-155.54;100.00;57697.75;5017938;28;20606;-67
2022/09/14 10:49:30;;;;;;;;;;;;;;;-155.54;100.00;57697.75;5016260;28;20496;-72
2022/09/14 10:52:14;;;;;;;;;;;;;;;-155.54;100.00;57697.75;5000716;28;19973;-72
2022/09/14 10:54:51;;;;;;;;;;;;;;;-155.54;100.00;57697.75;5019356;28;19974;-74
2022/09/14 10:57:21;;;;;;;;;;;;;;;-155.54;100.00;57697.75;5000676;28;19989;-73
2022/09/14 10:59:51;;;;;;;;;;;;;;;-155.54;100.00;57697.75;5018229;28;19974;-72
2022/09/14 11:02:29;;;;;;;;;;;;;;;-155.54;100.00;57697.75;5000080;28;20008;-73
2022/09/14 11:05:09;;;;;;;;;;;;;;;-155.54;100.00;57697.75;5015983;28;20055;-73
2022/09/14 11:07:34;;;;;;;;;;;;;;;-155.54;100.00;57697.75;5000214;28;19973;-72
2022/09/14 11:10:03;;;;;;;;;;;;;;;-155.54;100.00;57697.75;5018511;28;20059;-72
2022/09/14 11:12:33;;;;;;;;;;;;;;;-155.54;100.00;57697.75;4999581;28;20144;-72
2022/09/14 11:15:01;;;;;;;;;;;;;;;-155.54;100.00;57697.75;4998512;28;20353;-72
2022/09/14 11:17:56;;;;;;;;;;;;;;;-155.54;100.00;57697.75;4998269;28;19997;-73
2022/09/14 11:20:24;;;;;;;;;;;;;;;-155.54;100.00;57697.75;4998891;28;20104;-66
2022/09/14 11:23:02;;;;;;;;;;;;;;;-155.54;100.00;57697.75;5019304;28;20151;-66
2022/09/14 11:25:32;;;;;;;;;;;;;;;-155.54;100.00;57697.75;4997480;28;20936;-66
2022/09/14 11:27:58;;;;;;;;;;;;;;;-155.54;100.00;57697.75;5000264;28;19970;-66
2022/09/14 11:30:27;;;;;;;;;;;;;;;-155.54;100.00;57697.75;4996529;28;19962;-66
2022/09/14 11:33:18;;;;;;;;;;;;;;;-155.54;100.00;57697.75;5018946;28;20001;-66
2022/09/14 11:35:56;;;;;;;;;;;;;;;-155.54;100.00;57697.75;5007802;28;19974;-66
2022/09/14 11:38:28;;;;;;;;;;;;;;;-155.54;100.00;57697.75;5016749;28;19962;-68
2022/09/14 11:41:00;;;;;;;;;;;;;;;-155.54;100.00;57697.75;5018352;28;20405;-78
2022/09/14 11:43:28;;;;;;;;;;;;;;;-155.54;100.00;57697.75;5000676;28;20064;-79
2022/09/14 11:46:00;;;;;;;;;;;;;;;-155.54;100.00;57697.75;5018989;28;20043;-79
2022/09/14 11:48:30;;;;;;;;;;;;;;;-155.54;100.00;57697.75;5000491;28;20001;-78
2022/09/14 11:51:03;;;;;;;;;;;;;;;-155.54;100.00;57697.75;5001412;28;20169;-76
2022/09/14 11:53:28;;;;;;;;;;;;;;;-155.54;100.00;57697.75;5017268;28;20002;-75
2022/09/14 11:55:54;;;;;;;;;;;;;;;-155.54;100.00;57697.75;4984943;28;20381;-76
2022/09/14 11:58:20;;;;;;;;;;;;;;;-155.54;100.00;57697.75;5019042;28;19988;-75
2022/09/14 12:00:48;;;;;;;;;;;;;;;-155.54;100.00;57697.75;4986303;28;20466;-75
2022/09/14 12:03:17;;;;;;;;;;;;;;;-155.54;100.00;57697.75;5019013;28;20011;-76
2022/09/14 12:05:43;;;;;;;;;;;;;;;-155.54;100.00;57697.75;5000880;28;20040;-76
2022/09/14 12:08:25;;;;;;;;;;;;;;;-155.54;100.00;57697.75;5001033;28;20091;-76
2022/09/14 12:11:03;;;;;;;;;;;;;;;-155.54;100.00;57697.75;5002914;28;20008;-78
2022/09/14 12:13:29;;;;;;;;;;;;;;;-155.54;100.00;57697.75;4999921;28;20479;-77
2022/09/14 12:16:04;;;;;;;;;;;;;;;-155.54;100.00;57697.75;4996974;28;20743;-76
2022/09/14 12:18:29;;;;;;;;;;;;;;;-155.54;100.00;57697.75;5001097;28;20254;-76
2022/09/14 12:21:01;;;;;;;;;;;;;;;-155.54;100.00;57697.75;5001071;28;20000;-77
2022/09/14 12:23:39;;;;;;;;;;;;;;;-155.54;100.00;57697.75;5001106;28;19972;-77